12:59
Airports
History
Links
Donate
Help keep this website running!
PayPal
Bitcoin
Information on this page is community maintained and may be outdated or inaccurate and is intended for reference only or PC simulator navigating.
Always use approved charts for navigating.
VEIM
IMPHAL
IMPHAL (VEIM)
Imphal, Manipur, India (795140)
(C)
Lat/Lng:24° 45' 35.83" N / 93° 53' 48.12" E
24.759952 / 93.896699
Elevation:2540'ft 774mMSL
ID / ICAO:VEIM
Runways:1
Longest:(04-22) 2,752.0m 9,029ft Asphalt
Controlled:Yes
Distance To
Airport ID:
Airport Radio Frequencies
Tower: 123.5
Nearby VORs <50NM
Nearby NDBs
METARUpdated 07-23-17 12:00 GMT
Altimeter: 29.68
Visibility: 3.1 statute miles
Wind: 4 knots (210°)
Temp: 25°c 77°f
Humidity: 94.2%

METAR: VEIM 231200Z 21004KT 5000 -RA FEW010 SCT018 BKN100 25/24 Q1005 NOSIG

(Powered by phpweather)
Runway 04 / 22
Dimensions:2752 x 45.1m 9029' x 148'ft
Surface:Asphalt
Edge Lights:High intensity
Runway 04 [A]Runway 22 [B]
Heading:034°TH 214°TH
Lat:
Lng:
24° 44' 59.15"N
93° 53' 20.37"E
24° 46' 12.5"N
93° 54' 15.86"E
ALS:SALS
TDZ:Yes, lighted
User Notes and Comments
Google Map
Nearby Airports
(C) SILCHAR 58.5 NM
VEKU W 280°
(U) HOMMALINN 64.5 NM
VYHL E 81°
(C) DIMAPUR 78.0 NM
VEMR N 354°
(C) AIZAWL 98.2 NM
VEAZ SW 224°
(C) LENGPUI 102.5 NM
VELP SW 231°
(C) KALAY 109.0 NM
VYKL S 174°
(C) KAILASHAHAR 122.8 NM
VEKR WSW 255°
VFR Chart
Flight Planning at SkyVector.com